sensor_id;sensor_type;location;lat;lon;timestamp;temperature;humidity
25092;DHT22;13082;52.374;4.946;2023-07-31T00:02:23;17.30;99.90
25092;DHT22;13082;52.374;4.946;2023-07-31T00:04:49;17.30;99.90
25092;DHT22;13082;52.374;4.946;2023-07-31T00:07:14;17.40;99.90
25092;DHT22;13082;52.374;4.946;2023-07-31T00:09:40;17.40;99.90
25092;DHT22;13082;52.374;4.946;2023-07-31T00:12:06;17.40;99.90
25092;DHT22;13082;52.374;4.946;2023-07-31T00:14:32;17.40;99.90
25092;DHT22;13082;52.374;4.946;2023-07-31T00:16:57;17.40;99.90
25092;DHT22;13082;52.374;4.946;2023-07-31T00:19:23;17.40;99.90
25092;DHT22;13082;52.374;4.946;2023-07-31T00:21:48;17.40;99.90
25092;DHT22;13082;52.374;4.946;2023-07-31T00:24:14;17.40;99.90
25092;DHT22;13082;52.374;4.946;2023-07-31T00:26:40;17.40;99.90
25092;DHT22;13082;52.374;4.946;2023-07-31T00:29:05;17.40;99.90
25092;DHT22;13082;52.374;4.946;2023-07-31T00:31:31;17.40;99.90
25092;DHT22;13082;52.374;4.946;2023-07-31T00:33:56;17.50;99.90
25092;DHT22;13082;52.374;4.946;2023-07-31T00:36:22;17.50;99.90
25092;DHT22;13082;52.374;4.946;2023-07-31T00:38:48;17.60;99.90
25092;DHT22;13082;52.374;4.946;2023-07-31T00:41:14;17.70;99.90
25092;DHT22;13082;52.374;4.946;2023-07-31T00:43:40;17.80;99.90
25092;DHT22;13082;52.374;4.946;2023-07-31T00:46:06;17.70;99.90
25092;DHT22;13082;52.374;4.946;2023-07-31T00:48:32;17.70;99.90
25092;DHT22;13082;52.374;4.946;2023-07-31T00:50:58;17.60;99.90
25092;DHT22;13082;52.374;4.946;2023-07-31T00:53:24;17.60;99.90
25092;DHT22;13082;52.374;4.946;2023-07-31T00:55:52;17.60;99.90
25092;DHT22;13082;52.374;4.946;2023-07-31T00:58:18;17.50;99.90
25092;DHT22;13082;52.374;4.946;2023-07-31T01:00:43;17.60;99.90
25092;DHT22;13082;52.374;4.946;2023-07-31T01:03:09;17.70;99.90
25092;DHT22;13082;52.374;4.946;2023-07-31T01:08:44;17.60;99.90
25092;DHT22;13082;52.374;4.946;2023-07-31T01:11:34;17.70;99.90
25092;DHT22;13082;52.374;4.946;2023-07-31T01:14:01;17.70;99.90
25092;DHT22;13082;52.374;4.946;2023-07-31T01:16:27;17.70;99.90
25092;DHT22;13082;52.374;4.946;2023-07-31T01:18:52;17.70;99.90
25092;DHT22;13082;52.374;4.946;2023-07-31T01:26:38;17.60;99.90
25092;DHT22;13082;52.374;4.946;2023-07-31T01:29:13;17.60;99.90
25092;DHT22;13082;52.374;4.946;2023-07-31T01:31:42;17.60;99.90
25092;DHT22;13082;52.374;4.946;2023-07-31T01:34:11;17.60;99.90
25092;DHT22;13082;52.374;4.946;2023-07-31T01:36:38;17.50;99.90
25092;DHT22;13082;52.374;4.946;2023-07-31T01:39:03;17.50;99.90
25092;DHT22;13082;52.374;4.946;2023-07-31T01:41:29;17.50;99.90
25092;DHT22;13082;52.374;4.946;2023-07-31T01:43:55;17.50;99.90
25092;DHT22;13082;52.374;4.946;2023-07-31T01:46:21;17.50;99.90
25092;DHT22;13082;52.374;4.946;2023-07-31T01:48:46;17.50;99.90
25092;DHT22;13082;52.374;4.946;2023-07-31T01:51:12;17.40;99.90
25092;DHT22;13082;52.374;4.946;2023-07-31T01:53:37;17.50;99.90
25092;DHT22;13082;52.374;4.946;2023-07-31T01:56:03;17.50;99.90
25092;DHT22;13082;52.374;4.946;2023-07-31T01:58:29;17.60;99.90
25092;DHT22;13082;52.374;4.946;2023-07-31T02:00:54;17.50;99.90
25092;DHT22;13082;52.374;4.946;2023-07-31T02:03:20;17.50;99.90
25092;DHT22;13082;52.374;4.946;2023-07-31T02:05:49;17.50;99.90
25092;DHT22;13082;52.374;4.946;2023-07-31T02:08:15;17.50;99.90
25092;DHT22;13082;52.374;4.946;2023-07-31T02:10:41;17.50;99.90
25092;DHT22;13082;52.374;4.946;2023-07-31T02:13:07;17.60;99.90
25092;DHT22;13082;52.374;4.946;2023-07-31T02:15:33;17.50;99.90
25092;DHT22;13082;52.374;4.946;2023-07-31T02:17:58;17.50;99.90
25092;DHT22;13082;52.374;4.946;2023-07-31T02:20:24;17.50;99.90
25092;DHT22;13082;52.374;4.946;2023-07-31T02:22:50;17.60;99.90
25092;DHT22;13082;52.374;4.946;2023-07-31T02:25:15;17.60;99.90
25092;DHT22;13082;52.374;4.946;2023-07-31T02:27:41;17.60;99.90
25092;DHT22;13082;52.374;4.946;2023-07-31T02:30:07;17.60;99.90
25092;DHT22;13082;52.374;4.946;2023-07-31T02:32:33;17.60;99.90
25092;DHT22;13082;52.374;4.946;2023-07-31T02:34:58;17.50;99.90
25092;DHT22;13082;52.374;4.946;2023-07-31T02:37:25;17.60;99.90
25092;DHT22;13082;52.374;4.946;2023-07-31T02:39:51;17.50;99.90
25092;DHT22;13082;52.374;4.946;2023-07-31T02:42:16;17.40;99.90
25092;DHT22;13082;52.374;4.946;2023-07-31T02:44:42;17.50;99.90
25092;DHT22;13082;52.374;4.946;2023-07-31T02:47:07;17.50;99.90
25092;DHT22;13082;52.374;4.946;2023-07-31T02:49:33;17.50;99.90
25092;DHT22;13082;52.374;4.946;2023-07-31T02:51:59;17.50;99.90
25092;DHT22;13082;52.374;4.946;2023-07-31T02:54:24;17.50;99.90
25092;DHT22;13082;52.374;4.946;2023-07-31T02:56:50;17.50;99.90
25092;DHT22;13082;52.374;4.946;2023-07-31T02:59:16;17.40;99.90
25092;DHT22;13082;52.374;4.946;2023-07-31T03:01:41;17.50;99.90
25092;DHT22;13082;52.374;4.946;2023-07-31T03:04:07;17.50;99.90
25092;DHT22;13082;52.374;4.946;2023-07-31T03:06:33;17.50;99.90
25092;DHT22;13082;52.374;4.946;2023-07-31T03:08:58;17.50;99.90
25092;DHT22;13082;52.374;4.946;2023-07-31T03:11:24;17.50;99.90
25092;DHT22;13082;52.374;4.946;2023-07-31T03:13:49;17.60;99.90
25092;DHT22;13082;52.374;4.946;2023-07-31T03:16:15;17.60;99.90
25092;DHT22;13082;52.374;4.946;2023-07-31T03:18:41;17.60;99.90
25092;DHT22;13082;52.374;4.946;2023-07-31T03:21:06;17.50;99.90
25092;DHT22;13082;52.374;4.946;2023-07-31T03:23:32;17.60;99.90
25092;DHT22;13082;52.374;4.946;2023-07-31T03:26:02;17.50;99.90
25092;DHT22;13082;52.374;4.946;2023-07-31T03:28:29;17.50;99.90
25092;DHT22;13082;52.374;4.946;2023-07-31T03:30:55;17.50;99.90
25092;DHT22;13082;52.374;4.946;2023-07-31T03:33:21;17.50;99.90
25092;DHT22;13082;52.374;4.946;2023-07-31T03:35:46;17.50;99.90
25092;DHT22;13082;52.374;4.946;2023-07-31T03:38:12;17.50;99.90
25092;DHT22;13082;52.374;4.946;2023-07-31T03:40:38;17.50;99.90
25092;DHT22;13082;52.374;4.946;2023-07-31T03:43:04;17.50;99.90
25092;DHT22;13082;52.374;4.946;2023-07-31T03:45:30;17.40;99.90
25092;DHT22;13082;52.374;4.946;2023-07-31T03:47:56;17.40;99.90
25092;DHT22;13082;52.374;4.946;2023-07-31T03:50:21;17.40;99.90
25092;DHT22;13082;52.374;4.946;2023-07-31T03:52:47;17.40;99.90
25092;DHT22;13082;52.374;4.946;2023-07-31T03:55:13;17.40;99.90
25092;DHT22;13082;52.374;4.946;2023-07-31T03:57:38;17.40;99.90
25092;DHT22;13082;52.374;4.946;2023-07-31T04:00:04;17.40;99.90
25092;DHT22;13082;52.374;4.946;2023-07-31T04:02:30;17.40;99.90
25092;DHT22;13082;52.374;4.946;2023-07-31T04:04:55;17.40;99.90
25092;DHT22;13082;52.374;4.946;2023-07-31T04:07:21;17.40;99.90
25092;DHT22;13082;52.374;4.946;2023-07-31T04:09:46;17.30;99.90
25092;DHT22;13082;52.374;4.946;2023-07-31T04:12:12;17.40;99.90
25092;DHT22;13082;52.374;4.946;2023-07-31T04:14:38;17.30;99.90
25092;DHT22;13082;52.374;4.946;2023-07-31T04:17:03;17.40;99.90
25092;DHT22;13082;52.374;4.946;2023-07-31T04:19:29;17.40;99.90
25092;DHT22;13082;52.374;4.946;2023-07-31T04:21:54;17.40;99.90
25092;DHT22;13082;52.374;4.946;2023-07-31T04:24:20;17.40;99.90
25092;DHT22;13082;52.374;4.946;2023-07-31T04:26:53;17.40;99.90
25092;DHT22;13082;52.374;4.946;2023-07-31T04:29:19;17.40;99.90
25092;DHT22;13082;52.374;4.946;2023-07-31T04:31:45;17.40;99.90
25092;DHT22;13082;52.374;4.946;2023-07-31T04:34:10;17.40;99.90
25092;DHT22;13082;52.374;4.946;2023-07-31T04:36:37;17.40;99.90
25092;DHT22;13082;52.374;4.946;2023-07-31T04:39:02;17.40;99.90
25092;DHT22;13082;52.374;4.946;2023-07-31T04:41:28;17.40;99.90
25092;DHT22;13082;52.374;4.946;2023-07-31T04:43:53;17.40;99.90
25092;DHT22;13082;52.374;4.946;2023-07-31T04:46:19;17.40;99.90
25092;DHT22;13082;52.374;4.946;2023-07-31T04:48:45;17.40;99.90
25092;DHT22;13082;52.374;4.946;2023-07-31T04:51:10;17.40;99.90
25092;DHT22;13082;52.374;4.946;2023-07-31T04:53:36;17.30;99.90
25092;DHT22;13082;52.374;4.946;2023-07-31T04:56:02;17.30;99.90
25092;DHT22;13082;52.374;4.946;2023-07-31T04:58:28;17.30;99.90
25092;DHT22;13082;52.374;4.946;2023-07-31T05:00:53;17.30;99.90
25092;DHT22;13082;52.374;4.946;2023-07-31T05:03:19;17.20;99.90
25092;DHT22;13082;52.374;4.946;2023-07-31T05:05:44;17.20;99.90
25092;DHT22;13082;52.374;4.946;2023-07-31T05:08:10;17.20;99.90
25092;DHT22;13082;52.374;4.946;2023-07-31T05:10:36;17.20;99.90
25092;DHT22;13082;52.374;4.946;2023-07-31T05:13:04;17.20;99.90
25092;DHT22;13082;52.374;4.946;2023-07-31T05:15:30;17.10;99.90
25092;DHT22;13082;52.374;4.946;2023-07-31T05:17:56;17.10;99.90
25092;DHT22;13082;52.374;4.946;2023-07-31T05:20:21;17.10;99.90
25092;DHT22;13082;52.374;4.946;2023-07-31T05:22:47;17.10;99.90
25092;DHT22;13082;52.374;4.946;2023-07-31T05:25:13;17.10;99.90
25092;DHT22;13082;52.374;4.946;2023-07-31T05:27:38;17.10;99.90
25092;DHT22;13082;52.374;4.946;2023-07-31T05:30:05;17.10;99.90
25092;DHT22;13082;52.374;4.946;2023-07-31T05:32:31;17.10;99.90
25092;DHT22;13082;52.374;4.946;2023-07-31T05:34:56;17.10;99.90
25092;DHT22;13082;52.374;4.946;2023-07-31T05:37:22;17.10;99.90
25092;DHT22;13082;52.374;4.946;2023-07-31T05:39:47;17.10;99.90
25092;DHT22;13082;52.374;4.946;2023-07-31T05:42:13;17.10;99.90
25092;DHT22;13082;52.374;4.946;2023-07-31T05:44:39;17.00;99.90
25092;DHT22;13082;52.374;4.946;2023-07-31T05:47:04;17.00;99.90
25092;DHT22;13082;52.374;4.946;2023-07-31T05:49:30;16.80;99.90
25092;DHT22;13082;52.374;4.946;2023-07-31T05:51:56;16.80;99.90
25092;DHT22;13082;52.374;4.946;2023-07-31T05:54:21;16.70;99.90
25092;DHT22;13082;52.374;4.946;2023-07-31T05:56:47;16.70;99.90
25092;DHT22;13082;52.374;4.946;2023-07-31T05:59:13;16.60;99.90
25092;DHT22;13082;52.374;4.946;2023-07-31T06:01:39;16.60;99.90
25092;DHT22;13082;52.374;4.946;2023-07-31T06:04:05;16.60;99.90
25092;DHT22;13082;52.374;4.946;2023-07-31T06:06:31;16.50;99.90
25092;DHT22;13082;52.374;4.946;2023-07-31T06:08:56;16.60;99.90
25092;DHT22;13082;52.374;4.946;2023-07-31T06:11:22;16.50;99.90
25092;DHT22;13082;52.374;4.946;2023-07-31T06:13:48;16.60;99.90
25092;DHT22;13082;52.374;4.946;2023-07-31T06:16:14;16.60;99.90
25092;DHT22;13082;52.374;4.946;2023-07-31T06:18:41;16.60;99.90
25092;DHT22;13082;52.374;4.946;2023-07-31T06:21:07;16.60;99.90
25092;DHT22;13082;52.374;4.946;2023-07-31T06:23:33;16.60;99.90
25092;DHT22;13082;52.374;4.946;2023-07-31T06:25:58;16.60;99.90
25092;DHT22;13082;52.374;4.946;2023-07-31T06:28:28;16.60;99.90
25092;DHT22;13082;52.374;4.946;2023-07-31T06:30:57;16.70;99.90
25092;DHT22;13082;52.374;4.946;2023-07-31T06:33:23;16.60;99.90
25092;DHT22;13082;52.374;4.946;2023-07-31T06:35:49;16.60;99.90
25092;DHT22;13082;52.374;4.946;2023-07-31T06:38:14;16.60;99.90
25092;DHT22;13082;52.374;4.946;2023-07-31T06:40:40;16.60;99.90
25092;DHT22;13082;52.374;4.946;2023-07-31T06:43:06;16.70;99.90
25092;DHT22;13082;52.374;4.946;2023-07-31T06:45:36;16.60;99.90
25092;DHT22;13082;52.374;4.946;2023-07-31T06:48:03;16.60;99.90
25092;DHT22;13082;52.374;4.946;2023-07-31T06:50:30;16.70;99.90
25092;DHT22;13082;52.374;4.946;2023-07-31T06:52:56;16.70;99.90
25092;DHT22;13082;52.374;4.946;2023-07-31T06:55:23;16.70;99.90
25092;DHT22;13082;52.374;4.946;2023-07-31T06:57:53;16.70;99.90
25092;DHT22;13082;52.374;4.946;2023-07-31T07:00:19;16.80;99.90
25092;DHT22;13082;52.374;4.946;2023-07-31T07:02:45;16.80;99.90
25092;DHT22;13082;52.374;4.946;2023-07-31T07:05:13;16.80;99.90
25092;DHT22;13082;52.374;4.946;2023-07-31T07:07:39;16.80;99.90
25092;DHT22;13082;52.374;4.946;2023-07-31T07:10:05;16.90;99.90
25092;DHT22;13082;52.374;4.946;2023-07-31T07:12:32;16.90;99.90
25092;DHT22;13082;52.374;4.946;2023-07-31T07:14:58;17.00;99.90
25092;DHT22;13082;52.374;4.946;2023-07-31T07:17:25;17.00;99.90
25092;DHT22;13082;52.374;4.946;2023-07-31T07:19:51;17.00;99.90
25092;DHT22;13082;52.374;4.946;2023-07-31T07:22:17;17.00;99.90
25092;DHT22;13082;52.374;4.946;2023-07-31T07:24:43;17.10;99.90
25092;DHT22;13082;52.374;4.946;2023-07-31T07:27:08;17.10;99.90
25092;DHT22;13082;52.374;4.946;2023-07-31T07:29:34;17.10;99.90
25092;DHT22;13082;52.374;4.946;2023-07-31T07:32:00;17.20;99.90
25092;DHT22;13082;52.374;4.946;2023-07-31T07:34:26;17.20;99.90
25092;DHT22;13082;52.374;4.946;2023-07-31T07:36:52;17.30;99.90
25092;DHT22;13082;52.374;4.946;2023-07-31T07:39:18;17.30;99.90
25092;DHT22;13082;52.374;4.946;2023-07-31T07:41:44;17.30;99.90
25092;DHT22;13082;52.374;4.946;2023-07-31T07:44:09;17.40;99.90
25092;DHT22;13082;52.374;4.946;2023-07-31T07:46:35;17.50;99.90
25092;DHT22;13082;52.374;4.946;2023-07-31T07:49:00;17.50;99.90
25092;DHT22;13082;52.374;4.946;2023-07-31T07:51:26;17.60;99.90
25092;DHT22;13082;52.374;4.946;2023-07-31T07:53:52;17.60;99.90
25092;DHT22;13082;52.374;4.946;2023-07-31T07:56:17;17.60;99.90
25092;DHT22;13082;52.374;4.946;2023-07-31T07:58:43;17.70;99.90
25092;DHT22;13082;52.374;4.946;2023-07-31T08:01:08;17.70;99.90
25092;DHT22;13082;52.374;4.946;2023-07-31T08:03:34;17.70;99.90
25092;DHT22;13082;52.374;4.946;2023-07-31T08:06:00;17.80;99.90
25092;DHT22;13082;52.374;4.946;2023-07-31T08:08:27;17.80;99.90
25092;DHT22;13082;52.374;4.946;2023-07-31T08:10:53;17.80;99.90
25092;DHT22;13082;52.374;4.946;2023-07-31T08:13:18;17.80;99.90
25092;DHT22;13082;52.374;4.946;2023-07-31T08:15:44;17.90;99.90
25092;DHT22;13082;52.374;4.946;2023-07-31T08:18:10;17.90;99.90
25092;DHT22;13082;52.374;4.946;2023-07-31T08:20:37;17.90;99.90
25092;DHT22;13082;52.374;4.946;2023-07-31T08:23:03;17.90;99.90
25092;DHT22;13082;52.374;4.946;2023-07-31T08:25:29;17.90;99.90
25092;DHT22;13082;52.374;4.946;2023-07-31T08:27:54;17.90;99.90
25092;DHT22;13082;52.374;4.946;2023-07-31T08:30:21;18.00;99.90
25092;DHT22;13082;52.374;4.946;2023-07-31T08:32:47;18.00;99.90
25092;DHT22;13082;52.374;4.946;2023-07-31T08:35:12;18.00;99.90
25092;DHT22;13082;52.374;4.946;2023-07-31T08:37:38;18.00;99.90
25092;DHT22;13082;52.374;4.946;2023-07-31T08:40:05;18.00;99.90
25092;DHT22;13082;52.374;4.946;2023-07-31T08:42:31;18.00;99.90
25092;DHT22;13082;52.374;4.946;2023-07-31T08:44:58;18.10;99.90
25092;DHT22;13082;52.374;4.946;2023-07-31T08:47:26;18.10;99.90
25092;DHT22;13082;52.374;4.946;2023-07-31T08:49:52;18.10;99.90
25092;DHT22;13082;52.374;4.946;2023-07-31T08:52:19;18.10;99.90
25092;DHT22;13082;52.374;4.946;2023-07-31T08:54:45;18.10;99.90
25092;DHT22;13082;52.374;4.946;2023-07-31T08:57:11;18.20;99.90
25092;DHT22;13082;52.374;4.946;2023-07-31T08:59:38;18.20;99.90
25092;DHT22;13082;52.374;4.946;2023-07-31T09:02:08;18.10;99.90
25092;DHT22;13082;52.374;4.946;2023-07-31T09:04:34;18.20;99.90
25092;DHT22;13082;52.374;4.946;2023-07-31T09:07:01;18.20;99.90
25092;DHT22;13082;52.374;4.946;2023-07-31T09:09:30;18.20;99.90
25092;DHT22;13082;52.374;4.946;2023-07-31T09:11:57;18.30;99.90
25092;DHT22;13082;52.374;4.946;2023-07-31T09:14:25;18.30;99.90
25092;DHT22;13082;52.374;4.946;2023-07-31T09:16:55;18.30;99.90
25092;DHT22;13082;52.374;4.946;2023-07-31T09:19:35;18.30;99.90
25092;DHT22;13082;52.374;4.946;2023-07-31T09:22:05;18.30;99.90
25092;DHT22;13082;52.374;4.946;2023-07-31T09:24:32;18.30;99.90
25092;DHT22;13082;52.374;4.946;2023-07-31T09:26:59;18.30;99.90
25092;DHT22;13082;52.374;4.946;2023-07-31T09:29:25;18.40;99.90
25092;DHT22;13082;52.374;4.946;2023-07-31T09:31:52;18.50;99.90
25092;DHT22;13082;52.374;4.946;2023-07-31T09:34:19;18.50;99.90
25092;DHT22;13082;52.374;4.946;2023-07-31T09:36:47;18.40;99.90
25092;DHT22;13082;52.374;4.946;2023-07-31T09:39:14;18.40;99.90
25092;DHT22;13082;52.374;4.946;2023-07-31T09:41:47;18.40;99.90
25092;DHT22;13082;52.374;4.946;2023-07-31T09:44:13;18.40;99.90
25092;DHT22;13082;52.374;4.946;2023-07-31T09:46:39;18.40;99.90
25092;DHT22;13082;52.374;4.946;2023-07-31T09:49:09;18.40;99.90
25092;DHT22;13082;52.374;4.946;2023-07-31T09:51:36;18.40;99.90
25092;DHT22;13082;52.374;4.946;2023-07-31T09:54:14;18.40;99.90
25092;DHT22;13082;52.374;4.946;2023-07-31T09:56:43;18.30;99.90
25092;DHT22;13082;52.374;4.946;2023-07-31T09:59:11;18.30;99.90
25092;DHT22;13082;52.374;4.946;2023-07-31T10:01:37;18.30;99.90
25092;DHT22;13082;52.374;4.946;2023-07-31T10:04:04;18.40;99.90
25092;DHT22;13082;52.374;4.946;2023-07-31T10:06:30;18.40;99.90
25092;DHT22;13082;52.374;4.946;2023-07-31T10:08:59;18.50;99.90
25092;DHT22;13082;52.374;4.946;2023-07-31T10:11:25;18.50;99.90
25092;DHT22;13082;52.374;4.946;2023-07-31T10:13:53;18.50;99.90
25092;DHT22;13082;52.374;4.946;2023-07-31T10:16:20;18.50;99.90
25092;DHT22;13082;52.374;4.946;2023-07-31T10:18:47;18.60;99.90
25092;DHT22;13082;52.374;4.946;2023-07-31T10:21:15;18.60;99.90
25092;DHT22;13082;52.374;4.946;2023-07-31T10:23:41;18.50;99.90
25092;DHT22;13082;52.374;4.946;2023-07-31T10:26:08;18.60;99.90
25092;DHT22;13082;52.374;4.946;2023-07-31T10:28:34;18.70;99.90
25092;DHT22;13082;52.374;4.946;2023-07-31T10:31:02;18.80;99.90
25092;DHT22;13082;52.374;4.946;2023-07-31T10:33:28;18.80;99.90
25092;DHT22;13082;52.374;4.946;2023-07-31T10:36:12;18.80;99.90
25092;DHT22;13082;52.374;4.946;2023-07-31T10:38:38;18.90;99.90
25092;DHT22;13082;52.374;4.946;2023-07-31T10:41:11;18.80;99.90
25092;DHT22;13082;52.374;4.946;2023-07-31T10:43:37;18.80;99.90
25092;DHT22;13082;52.374;4.946;2023-07-31T10:46:12;18.80;99.90
25092;DHT22;13082;52.374;4.946;2023-07-31T10:48:39;18.80;99.90
25092;DHT22;13082;52.374;4.946;2023-07-31T10:51:11;18.80;99.90
25092;DHT22;13082;52.374;4.946;2023-07-31T10:53:38;18.90;99.90
25092;DHT22;13082;52.374;4.946;2023-07-31T10:56:07;18.90;99.90
25092;DHT22;13082;52.374;4.946;2023-07-31T10:58:33;18.90;99.90
25092;DHT22;13082;52.374;4.946;2023-07-31T11:01:05;18.90;99.90
25092;DHT22;13082;52.374;4.946;2023-07-31T11:03:45;19.00;99.90
25092;DHT22;13082;52.374;4.946;2023-07-31T11:06:11;19.00;99.90
25092;DHT22;13082;52.374;4.946;2023-07-31T11:08:42;19.00;99.90
25092;DHT22;13082;52.374;4.946;2023-07-31T11:11:10;19.00;99.90
25092;DHT22;13082;52.374;4.946;2023-07-31T11:16:07;19.00;99.90
25092;DHT22;13082;52.374;4.946;2023-07-31T11:18:32;19.10;99.90
25092;DHT22;13082;52.374;4.946;2023-07-31T11:20:58;19.10;99.90
25092;DHT22;13082;52.374;4.946;2023-07-31T11:23:24;19.20;99.90
25092;DHT22;13082;52.374;4.946;2023-07-31T11:25:50;19.10;99.90
25092;DHT22;13082;52.374;4.946;2023-07-31T11:28:16;19.10;99.90
25092;DHT22;13082;52.374;4.946;2023-07-31T11:30:43;19.10;99.90
25092;DHT22;13082;52.374;4.946;2023-07-31T11:33:11;19.10;99.90
25092;DHT22;13082;52.374;4.946;2023-07-31T11:35:47;19.10;99.90
25092;DHT22;13082;52.374;4.946;2023-07-31T11:41:02;19.20;99.90
25092;DHT22;13082;52.374;4.946;2023-07-31T11:43:29;19.20;99.90
25092;DHT22;13082;52.374;4.946;2023-07-31T11:45:57;19.10;99.90
25092;DHT22;13082;52.374;4.946;2023-07-31T11:48:27;19.10;99.90
25092;DHT22;13082;52.374;4.946;2023-07-31T11:50:58;19.20;99.90
25092;DHT22;13082;52.374;4.946;2023-07-31T11:53:49;19.10;99.90
25092;DHT22;13082;52.374;4.946;2023-07-31T11:56:20;19.10;99.90
25092;DHT22;13082;52.374;4.946;2023-07-31T11:58:48;19.10;99.90
25092;DHT22;13082;52.374;4.946;2023-07-31T12:01:15;19.00;99.90
25092;DHT22;13082;52.374;4.946;2023-07-31T12:03:44;19.00;99.90
25092;DHT22;13082;52.374;4.946;2023-07-31T12:06:10;19.00;99.90
25092;DHT22;13082;52.374;4.946;2023-07-31T12:08:36;19.00;99.90
25092;DHT22;13082;52.374;4.946;2023-07-31T12:11:04;19.10;99.90
25092;DHT22;13082;52.374;4.946;2023-07-31T12:13:31;19.10;99.90
25092;DHT22;13082;52.374;4.946;2023-07-31T12:16:00;19.20;99.90
25092;DHT22;13082;52.374;4.946;2023-07-31T12:18:30;19.20;99.90
25092;DHT22;13082;52.374;4.946;2023-07-31T12:20:57;19.20;99.90
25092;DHT22;13082;52.374;4.946;2023-07-31T12:23:25;19.20;99.90
25092;DHT22;13082;52.374;4.946;2023-07-31T12:28:37;19.20;99.90
25092;DHT22;13082;52.374;4.946;2023-07-31T12:31:05;19.20;99.90
25092;DHT22;13082;52.374;4.946;2023-07-31T12:33:35;19.30;99.90
25092;DHT22;13082;52.374;4.946;2023-07-31T12:36:03;19.30;99.90
25092;DHT22;13082;52.374;4.946;2023-07-31T12:38:30;19.40;99.90
25092;DHT22;13082;52.374;4.946;2023-07-31T12:40:56;19.30;99.90
25092;DHT22;13082;52.374;4.946;2023-07-31T12:43:21;19.30;99.90
25092;DHT22;13082;52.374;4.946;2023-07-31T12:45:47;19.40;99.90
25092;DHT22;13082;52.374;4.946;2023-07-31T12:48:13;19.30;99.90
25092;DHT22;13082;52.374;4.946;2023-07-31T12:50:39;19.40;99.90
25092;DHT22;13082;52.374;4.946;2023-07-31T12:53:05;19.40;99.90
25092;DHT22;13082;52.374;4.946;2023-07-31T12:55:30;19.30;99.90
25092;DHT22;13082;52.374;4.946;2023-07-31T12:57:56;19.30;99.90
25092;DHT22;13082;52.374;4.946;2023-07-31T13:00:22;19.40;99.90
25092;DHT22;13082;52.374;4.946;2023-07-31T13:02:48;19.40;99.90
25092;DHT22;13082;52.374;4.946;2023-07-31T13:05:14;19.40;99.90
25092;DHT22;13082;52.374;4.946;2023-07-31T13:07:40;19.50;99.90
25092;DHT22;13082;52.374;4.946;2023-07-31T13:10:07;19.50;99.90
25092;DHT22;13082;52.374;4.946;2023-07-31T13:12:33;19.50;99.90
25092;DHT22;13082;52.374;4.946;2023-07-31T13:14:58;19.50;99.90
25092;DHT22;13082;52.374;4.946;2023-07-31T13:17:24;19.50;99.90
25092;DHT22;13082;52.374;4.946;2023-07-31T13:19:52;19.60;99.90
25092;DHT22;13082;52.374;4.946;2023-07-31T13:22:18;19.60;99.90
25092;DHT22;13082;52.374;4.946;2023-07-31T13:24:43;19.60;99.90
25092;DHT22;13082;52.374;4.946;2023-07-31T13:27:09;19.60;99.90
25092;DHT22;13082;52.374;4.946;2023-07-31T13:29:34;19.60;99.90
25092;DHT22;13082;52.374;4.946;2023-07-31T13:32:00;19.60;99.90
25092;DHT22;13082;52.374;4.946;2023-07-31T13:34:26;19.60;99.90
25092;DHT22;13082;52.374;4.946;2023-07-31T13:36:51;19.80;99.90
25092;DHT22;13082;52.374;4.946;2023-07-31T13:39:17;19.70;99.90
25092;DHT22;13082;52.374;4.946;2023-07-31T13:41:42;19.80;99.90
25092;DHT22;13082;52.374;4.946;2023-07-31T13:44:08;19.70;99.90
25092;DHT22;13082;52.374;4.946;2023-07-31T13:46:34;19.80;99.90
25092;DHT22;13082;52.374;4.946;2023-07-31T13:48:59;19.80;99.90
25092;DHT22;13082;52.374;4.946;2023-07-31T13:51:26;19.70;99.90
25092;DHT22;13082;52.374;4.946;2023-07-31T13:53:53;19.70;99.90
25092;DHT22;13082;52.374;4.946;2023-07-31T13:56:18;19.60;99.90
25092;DHT22;13082;52.374;4.946;2023-07-31T13:58:44;19.60;99.90
25092;DHT22;13082;52.374;4.946;2023-07-31T14:01:09;19.50;99.90
25092;DHT22;13082;52.374;4.946;2023-07-31T14:03:35;19.30;99.90
25092;DHT22;13082;52.374;4.946;2023-07-31T14:06:01;19.20;99.90
25092;DHT22;13082;52.374;4.946;2023-07-31T14:08:26;19.20;99.90
25092;DHT22;13082;52.374;4.946;2023-07-31T14:10:52;19.10;99.90
25092;DHT22;13082;52.374;4.946;2023-07-31T14:13:17;19.10;99.90
25092;DHT22;13082;52.374;4.946;2023-07-31T14:15:43;19.00;99.90
25092;DHT22;13082;52.374;4.946;2023-07-31T14:18:09;19.00;99.90
25092;DHT22;13082;52.374;4.946;2023-07-31T14:20:35;19.00;99.90
25092;DHT22;13082;52.374;4.946;2023-07-31T14:23:02;18.90;99.90
25092;DHT22;13082;52.374;4.946;2023-07-31T14:25:28;18.90;99.90
25092;DHT22;13082;52.374;4.946;2023-07-31T14:27:53;18.90;99.90
25092;DHT22;13082;52.374;4.946;2023-07-31T14:30:19;18.80;99.90
25092;DHT22;13082;52.374;4.946;2023-07-31T14:32:45;18.80;99.90
25092;DHT22;13082;52.374;4.946;2023-07-31T14:35:11;18.80;99.90
25092;DHT22;13082;52.374;4.946;2023-07-31T14:37:43;18.90;99.90
25092;DHT22;13082;52.374;4.946;2023-07-31T14:40:10;18.80;99.90
25092;DHT22;13082;52.374;4.946;2023-07-31T14:42:36;18.80;99.90
25092;DHT22;13082;52.374;4.946;2023-07-31T14:45:03;18.80;99.90
25092;DHT22;13082;52.374;4.946;2023-07-31T14:47:29;18.80;99.90
25092;DHT22;13082;52.374;4.946;2023-07-31T14:49:56;18.80;99.90
25092;DHT22;13082;52.374;4.946;2023-07-31T14:52:22;18.80;99.90
25092;DHT22;13082;52.374;4.946;2023-07-31T14:54:47;18.80;99.90
25092;DHT22;13082;52.374;4.946;2023-07-31T14:57:13;18.80;99.90
25092;DHT22;13082;52.374;4.946;2023-07-31T14:59:39;18.70;99.90
25092;DHT22;13082;52.374;4.946;2023-07-31T15:02:05;18.80;99.90
25092;DHT22;13082;52.374;4.946;2023-07-31T15:04:31;18.80;99.90
25092;DHT22;13082;52.374;4.946;2023-07-31T15:06:56;18.80;99.90
25092;DHT22;13082;52.374;4.946;2023-07-31T15:09:22;18.80;99.90
25092;DHT22;13082;52.374;4.946;2023-07-31T15:11:48;18.90;99.90
25092;DHT22;13082;52.374;4.946;2023-07-31T15:14:13;18.90;99.90
25092;DHT22;13082;52.374;4.946;2023-07-31T15:16:39;19.00;99.90
25092;DHT22;13082;52.374;4.946;2023-07-31T15:19:04;19.00;99.90
25092;DHT22;13082;52.374;4.946;2023-07-31T15:21:30;19.00;99.90
25092;DHT22;13082;52.374;4.946;2023-07-31T15:23:56;19.00;99.90
25092;DHT22;13082;52.374;4.946;2023-07-31T15:26:21;19.00;99.90
25092;DHT22;13082;52.374;4.946;2023-07-31T15:28:55;19.00;99.90
25092;DHT22;13082;52.374;4.946;2023-07-31T15:31:21;19.00;99.90
25092;DHT22;13082;52.374;4.946;2023-07-31T15:33:48;19.10;99.90
25092;DHT22;13082;52.374;4.946;2023-07-31T15:36:13;19.10;99.90
25092;DHT22;13082;52.374;4.946;2023-07-31T15:38:39;19.10;99.90
25092;DHT22;13082;52.374;4.946;2023-07-31T15:41:05;19.10;99.90
25092;DHT22;13082;52.374;4.946;2023-07-31T15:43:31;19.10;99.90